CYYZ/YYZ METAR and TAF weather

Enter ICAO airport designator
Station Type Date Time Source
CYYZ METAR 2022/12/05 14:00 UTC NOAA

CYYZ 051400Z 21010KT 15SM SCT160 BKN240 01/M07 A2999 RMK AS3CS3 SLP163


Station Type Date Time Source
CYYZ Decoded METAR 2022/12/05 14:00 UTC NOAA

Toronto Pearson Int'L. Ont., Canada (CYYZ) 43-40N 079-38W 173M
Dec 05, 2022 - 09:00 AM EST / 2022.12.05 1400 UTC
Wind: from the SSW (210 degrees) at 12 MPH (10 KT):0
Visibility: 15 mile(s):0
Sky conditions: mostly cloudy
Temperature: 33 F (1 C)
Windchill: 24 F (-4 C):1
Dew Point: 19 F (-7 C)
Relative Humidity: 55%
Pressure (altimeter): 29.99 in. Hg (1015 hPa)
ob: CYYZ 051400Z 21010KT 15SM SCT160 BKN240 01/M07 A2999 RMK AS3CS3 SLP163
cycle: 14

Station Type Date Time Source
CYYZ TAF 2022/12/05 15:42 UTC NOAA

TAF TAF CYYZ 051440Z 0515/0618 21010KT P6SM SCT180 BKN240
BECMG 0515/0517 22015G25KT
FM052000 20012G22KT P6SM BKN160 OVC240
FM052300 20012KT P6SM OVC120
BECMG 0600/0602 20008KT
FM060500 20008KT P6SM BKN060 OVC120
BECMG 0608/0610 VRB03KT
FM061100 06006KT P6SM -RA OVC040
FM061300 06007KT 6SM -RA BR OVC020
FM061500 06008KT 3SM -RA BR SCT006 OVC012 PROB30 0615/0617 2SM -DZ BR OVC006
FM061700 08008KT 3SM -DZ BR SCT003 OVC006 PROB30 0617/0618 1SM -DZ BR OVC003
RMK NXT FCST BY 051800Z

Example: see airport list